createdAt,value
2018-12-23T00:02:16.664Z,99992.55
2018-12-23T00:04:44.441Z,99984.31
2018-12-23T00:07:11.970Z,99976.80
2018-12-23T00:09:39.517Z,99980.40
2018-12-23T00:12:07.238Z,99975.39
2018-12-23T00:14:34.791Z,99979.09
2018-12-23T00:17:02.342Z,99989.75
2018-12-23T00:19:30.193Z,99998.84
2018-12-23T00:21:57.713Z,99999.11
2018-12-23T00:24:25.269Z,100007.39
2018-12-23T00:26:53.510Z,100014.35
2018-12-23T00:29:20.603Z,100003.64
2018-12-23T00:31:48.130Z,100000.44
2018-12-23T00:34:15.873Z,100003.95
2018-12-23T00:36:43.406Z,100005.67
2018-12-23T00:39:10.973Z,99986.61
2018-12-23T00:41:38.641Z,99992.27
2018-12-23T00:44:06.178Z,99983.05
2018-12-23T00:46:33.705Z,99997.88
2018-12-23T00:49:01.398Z,100002.30
2018-12-23T00:51:28.973Z,99995.40
2018-12-23T00:53:56.500Z,99994.18
2018-12-23T00:56:24.329Z,100003.70
2018-12-23T00:58:51.913Z,100007.64
2018-12-23T01:01:19.461Z,100011.38
2018-12-23T01:03:47.381Z,100003.82
2018-12-23T01:06:14.945Z,100002.63
2018-12-23T01:08:42.524Z,99999.72
2018-12-23T01:11:10.162Z,99995.69
2018-12-23T01:13:37.728Z,100000.20
2018-12-23T01:16:05.283Z,100013.95
2018-12-23T01:18:32.846Z,100008.48
2018-12-23T01:21:00.436Z,99992.73
2018-12-23T01:23:28.007Z,99987.24
2018-12-23T01:25:55.611Z,99976.93
2018-12-23T01:28:23.144Z,99979.05
2018-12-23T01:30:50.724Z,99970.30
2018-12-23T01:33:18.508Z,99973.94
2018-12-23T01:35:46.066Z,99975.98
2018-12-23T01:38:13.610Z,99973.34
2018-12-23T01:40:41.313Z,99973.17
2018-12-23T01:43:08.880Z,99975.80
2018-12-23T01:45:36.438Z,99970.68
2018-12-23T01:48:04.169Z,99973.02
2018-12-23T01:50:31.738Z,99975.52
2018-12-23T01:52:59.295Z,99975.70
2018-12-23T01:55:26.901Z,99978.00
2018-12-23T01:57:54.441Z,99977.33
2018-12-23T02:00:22.009Z,99983.65
2018-12-23T02:02:49.909Z,99982.81
2018-12-23T02:05:17.491Z,99987.56
2018-12-23T02:07:45.023Z,99976.80
2018-12-23T02:10:12.717Z,99977.72
2018-12-23T02:12:40.264Z,99967.23
2018-12-23T02:15:07.846Z,99972.77
2018-12-23T02:17:35.596Z,99960.12
2018-12-23T02:20:03.166Z,99963.98
2018-12-23T02:22:30.732Z,99968.89
2018-12-23T02:24:58.462Z,99969.56
2018-12-23T02:27:26.016Z,99966.84
2018-12-23T02:29:53.589Z,99978.27
2018-12-23T02:32:21.220Z,99972.00
2018-12-23T02:34:48.758Z,99965.02
2018-12-23T02:37:16.281Z,99967.90
2018-12-23T02:39:43.913Z,99964.20
2018-12-23T02:42:11.470Z,99969.13
2018-12-23T02:44:38.996Z,99960.86
2018-12-23T02:47:06.609Z,99955.56
2018-12-23T02:49:34.174Z,99956.84
2018-12-23T02:52:01.705Z,99946.88
2018-12-23T02:54:29.459Z,99952.54
2018-12-23T02:56:56.998Z,99955.20
2018-12-23T02:59:24.573Z,99959.41
2018-12-23T03:01:52.312Z,99956.20
2018-12-23T03:04:19.852Z,99958.05
2018-12-23T03:06:47.446Z,99957.33
2018-12-23T03:09:15.122Z,99957.28
2018-12-23T03:11:42.726Z,99961.02
2018-12-23T03:14:10.257Z,99961.97
2018-12-23T03:16:37.925Z,99954.01
2018-12-23T03:19:05.481Z,99948.73
2018-12-23T03:21:33.051Z,99939.86
2018-12-23T03:24:00.841Z,99959.12
2018-12-23T03:26:28.388Z,99965.05
2018-12-23T03:28:55.969Z,99969.56
2018-12-23T03:31:23.702Z,99968.69
2018-12-23T03:33:51.253Z,99964.34
2018-12-23T03:36:18.801Z,99960.14
2018-12-23T03:38:46.374Z,99953.52
2018-12-23T03:41:13.968Z,99953.28
2018-12-23T03:43:41.540Z,99950.30
2018-12-23T03:46:09.220Z,99939.37
2018-12-23T03:48:36.827Z,99950.30
2018-12-23T03:51:04.401Z,99950.14
2018-12-23T03:53:32.026Z,99952.03
2018-12-23T03:55:59.600Z,99949.64
2018-12-23T03:58:27.177Z,99958.88
2018-12-23T04:00:54.841Z,99948.15
2018-12-23T04:03:22.447Z,99960.99
2018-12-23T04:05:49.970Z,99952.92
2018-12-23T04:08:17.589Z,99956.56
2018-12-23T04:10:45.171Z,99951.24
2018-12-23T04:13:12.728Z,99951.95
2018-12-23T04:15:40.549Z,99935.16
2018-12-23T04:18:08.121Z,99937.55
2018-12-23T04:20:35.686Z,99937.12
2018-12-23T04:23:03.310Z,99936.81
2018-12-23T04:25:30.866Z,99940.86
2018-12-23T04:27:58.422Z,99945.64
2018-12-23T04:30:26.010Z,99937.80
2018-12-23T04:32:53.576Z,99928.31
2018-12-23T04:35:21.110Z,99914.81
2018-12-23T04:37:48.897Z,99894.30
2018-12-23T04:40:16.453Z,99915.33
2018-12-23T04:42:44.007Z,99935.58
2018-12-23T04:45:11.692Z,99940.00
2018-12-23T04:47:39.249Z,99945.04
2018-12-23T04:50:06.875Z,99946.34
2018-12-23T04:52:35.481Z,99943.65
2018-12-23T04:55:03.059Z,99942.16
2018-12-23T04:57:32.615Z,99942.22
2018-12-23T05:00:00.525Z,99952.47
2018-12-23T05:02:28.059Z,99953.84
2018-12-23T05:04:55.612Z,99944.45
2018-12-23T05:07:23.226Z,99940.41
2018-12-23T05:09:50.739Z,99946.97
2018-12-23T05:12:18.281Z,99944.91
2018-12-23T05:14:46.073Z,99942.24
2018-12-23T05:17:13.639Z,99950.95
2018-12-23T05:19:41.210Z,99962.45
2018-12-23T05:22:08.825Z,99971.95
2018-12-23T05:24:36.377Z,99982.58
2018-12-23T05:27:03.949Z,99995.61
2018-12-23T05:29:31.841Z,99996.08
2018-12-23T05:31:59.388Z,100000.73
2018-12-23T05:34:26.940Z,100004.50
2018-12-23T05:36:54.677Z,99998.67
2018-12-23T05:39:22.290Z,100002.19
2018-12-23T05:41:49.857Z,100004.64
2018-12-23T05:44:17.480Z,100016.05
2018-12-23T05:46:45.037Z,100006.79
2018-12-23T05:49:12.573Z,100009.38
2018-12-23T05:51:40.314Z,100013.88
2018-12-23T05:54:07.853Z,100001.11
2018-12-23T05:56:35.414Z,99999.41
2018-12-23T05:59:02.976Z,100001.18
2018-12-23T06:01:30.537Z,100000.97
2018-12-23T06:03:58.088Z,100007.70
2018-12-23T06:06:25.781Z,99996.07
2018-12-23T06:08:53.338Z,99993.37
2018-12-23T06:11:20.898Z,99996.34
2018-12-23T06:13:48.490Z,100000.59
2018-12-23T06:16:16.098Z,99992.89
2018-12-23T06:18:43.693Z,99997.67
2018-12-23T06:21:12.173Z,99995.39
2018-12-23T06:23:39.710Z,100002.45
2018-12-23T06:26:07.227Z,100002.23
2018-12-23T06:28:34.808Z,100009.63
2018-12-23T06:31:02.363Z,100012.81
2018-12-23T06:33:29.917Z,100014.98
2018-12-23T06:35:57.801Z,100017.82
2018-12-23T06:38:25.350Z,100031.93
2018-12-23T06:40:53.073Z,100035.08
2018-12-23T06:43:21.566Z,100035.89
2018-12-23T06:45:49.133Z,100049.50
2018-12-23T06:48:16.715Z,100051.46
2018-12-23T06:50:44.405Z,100052.83
2018-12-23T06:53:11.975Z,100048.69
2018-12-23T06:55:39.529Z,100051.69
2018-12-23T06:58:07.281Z,100057.34
2018-12-23T07:00:34.829Z,100056.63
2018-12-23T07:03:02.365Z,100067.14
2018-12-23T07:05:30.077Z,100065.91
2018-12-23T07:07:57.633Z,100071.15
2018-12-23T07:10:25.171Z,100077.61
2018-12-23T07:15:57.848Z,100074.72
2018-12-23T07:18:25.677Z,100073.08
2018-12-23T07:20:55.277Z,100061.45
2018-12-23T07:23:20.993Z,100067.22
2018-12-23T07:25:48.754Z,100066.69
2018-12-23T07:28:16.293Z,100074.00
2018-12-23T07:30:43.838Z,100070.95
2018-12-23T07:33:11.799Z,100072.48
2018-12-23T07:35:39.414Z,100077.81
2018-12-23T07:38:06.990Z,100081.28
2018-12-23T07:40:34.614Z,100080.37
2018-12-23T07:43:02.170Z,100084.13
2018-12-23T07:45:29.728Z,100068.48
2018-12-23T07:47:57.674Z,100064.45
2018-12-23T07:50:25.487Z,100069.14
2018-12-23T07:52:53.061Z,100069.80
2018-12-23T07:55:20.749Z,100081.39
2018-12-23T07:57:48.312Z,100089.78
2018-12-23T08:00:15.865Z,100088.26
2018-12-23T08:03:02.600Z,100087.13
2018-12-23T08:05:30.229Z,100104.16
2018-12-23T08:07:57.797Z,100115.14
2018-12-23T08:10:25.611Z,100107.66
2018-12-23T08:12:53.144Z,100112.11
2018-12-23T08:15:20.705Z,100108.61
2018-12-23T08:17:48.397Z,100104.05
2018-12-23T08:20:15.967Z,100111.58
2018-12-23T08:22:43.508Z,100110.52
2018-12-23T08:25:11.286Z,100109.30
2018-12-23T08:27:38.841Z,100111.61
2018-12-23T08:30:06.417Z,100110.07
2018-12-23T08:32:51.138Z,100104.43
2018-12-23T08:35:18.661Z,100105.09
2018-12-23T08:37:46.206Z,100106.03
2018-12-23T08:40:14.045Z,100101.09
2018-12-23T08:42:41.608Z,100097.59
2018-12-23T08:45:09.146Z,100100.70
2018-12-23T08:47:36.814Z,100103.30
2018-12-23T08:50:04.429Z,100094.26
2018-12-23T08:52:31.984Z,100095.31
2018-12-23T08:54:59.677Z,100089.59
2018-12-23T08:57:27.249Z,100084.05
2018-12-23T08:59:54.815Z,100067.89
2018-12-23T09:02:22.440Z,100077.27
2018-12-23T09:04:50.063Z,100074.30
2018-12-23T09:07:17.609Z,100078.39
2018-12-23T09:09:45.440Z,100078.91
2018-12-23T09:12:12.989Z,100079.04
2018-12-23T09:14:40.552Z,100060.36
2018-12-23T09:17:08.395Z,100073.92
2018-12-23T09:19:35.963Z,100068.84
2018-12-23T09:22:03.509Z,100066.66
2018-12-23T09:24:31.206Z,100070.94
2018-12-23T09:26:58.793Z,100071.41
2018-12-23T09:29:26.383Z,100061.80
2018-12-23T09:31:54.126Z,100067.84
2018-12-23T09:34:21.697Z,100069.11
2018-12-23T09:36:49.284Z,100073.57
2018-12-23T09:39:17.389Z,100074.67
2018-12-23T09:41:44.997Z,100063.45
2018-12-23T09:44:12.597Z,100066.63
2018-12-23T09:46:40.413Z,100066.41
2018-12-23T09:49:07.974Z,100054.33
2018-12-23T09:51:35.941Z,100064.94
2018-12-23T09:54:03.870Z,100064.39
2018-12-23T09:56:31.473Z,100061.69
2018-12-23T09:58:59.045Z,100055.84
2018-12-23T10:01:26.758Z,100054.94
2018-12-23T10:03:54.306Z,100046.95
2018-12-23T10:06:21.897Z,100045.16
2018-12-23T10:08:49.533Z,100054.18
2018-12-23T10:11:17.102Z,100040.45
2018-12-23T10:13:44.674Z,100044.53
2018-12-23T10:16:12.509Z,100065.41
2018-12-23T10:18:40.089Z,100060.69
2018-12-23T10:21:07.671Z,100056.17
2018-12-23T10:23:35.596Z,100049.89
2018-12-23T10:26:03.164Z,100040.34
2018-12-23T10:28:30.708Z,100055.77
2018-12-23T10:30:58.362Z,100042.72
2018-12-23T10:33:25.949Z,100046.20
2018-12-23T10:35:53.495Z,100050.72
2018-12-23T10:38:21.100Z,100050.14
2018-12-23T10:40:48.639Z,100057.98
2018-12-23T10:43:16.217Z,100058.76
2018-12-23T10:45:43.841Z,100062.75
2018-12-23T10:48:11.465Z,100058.41
2018-12-23T10:50:38.996Z,100064.71
2018-12-23T10:53:06.722Z,100063.95
2018-12-23T10:55:34.283Z,100061.64
2018-12-23T10:58:02.742Z,100061.09
2018-12-23T11:00:30.461Z,100056.16
2018-12-23T11:02:58.030Z,100066.80
2018-12-23T11:05:25.599Z,100056.91
2018-12-23T11:07:53.372Z,100058.88
2018-12-23T11:10:20.953Z,100071.37
2018-12-23T11:12:56.481Z,100064.23
2018-12-23T11:15:24.050Z,100068.06
2018-12-23T11:17:51.585Z,100069.98
2018-12-23T11:20:20.204Z,100081.69
2018-12-23T11:22:47.800Z,100078.65
2018-12-23T11:25:15.381Z,100084.36
2018-12-23T11:27:43.033Z,100085.08
2018-12-23T11:30:10.592Z,100084.87
2018-12-23T11:32:38.157Z,100097.49
2018-12-23T11:35:06.054Z,100092.70
2018-12-23T11:37:33.717Z,100092.10
2018-12-23T11:40:01.277Z,100092.88
2018-12-23T11:42:29.245Z,100089.12
2018-12-23T11:44:56.861Z,100087.10
2018-12-23T11:47:24.409Z,100089.69
2018-12-23T11:49:52.294Z,100093.00
2018-12-23T11:52:19.837Z,100092.52
2018-12-23T11:54:47.387Z,100095.45
2018-12-23T11:57:15.404Z,100090.61
2018-12-23T11:59:42.956Z,100095.94
2018-12-23T12:02:15.202Z,100103.64
2018-12-23T12:04:38.503Z,100101.39
2018-12-23T12:07:06.041Z,100102.98
2018-12-23T12:09:33.591Z,100109.48
2018-12-23T12:12:01.490Z,100116.62
2018-12-23T12:14:29.065Z,100115.13
2018-12-23T12:16:56.629Z,100112.61
2018-12-23T12:19:24.234Z,100106.20
2018-12-23T12:21:51.831Z,100111.08
2018-12-23T12:24:19.470Z,100108.56
2018-12-23T12:26:47.061Z,100117.28
2018-12-23T12:29:14.655Z,100131.00
2018-12-23T12:31:42.201Z,100125.98
2018-12-23T12:34:09.912Z,100123.88
2018-12-23T12:36:37.464Z,100111.87
2018-12-23T12:39:05.098Z,100108.45
2018-12-23T12:41:32.809Z,100116.83
2018-12-23T12:44:00.413Z,100120.59
2018-12-23T12:46:27.982Z,100129.52
2018-12-23T12:48:55.604Z,100134.95
2018-12-23T12:51:23.282Z,100129.84
2018-12-23T12:53:50.744Z,100118.70
2018-12-23T12:56:18.679Z,100124.28
2018-12-23T12:58:46.225Z,100118.98
2018-12-23T13:01:13.791Z,100116.02
2018-12-23T13:03:41.476Z,100104.12
2018-12-23T13:06:09.017Z,100103.85
2018-12-23T13:08:36.584Z,100111.14
2018-12-23T13:11:04.426Z,100110.04
2018-12-23T13:13:31.992Z,100097.87
2018-12-23T13:15:59.588Z,100096.34
2018-12-23T13:18:27.454Z,100095.98
2018-12-23T13:20:55.037Z,100096.95
2018-12-23T13:23:22.581Z,100105.91
2018-12-23T13:25:50.239Z,100126.34
2018-12-23T13:28:17.793Z,100128.34
2018-12-23T13:30:45.351Z,100136.85
2018-12-23T13:33:13.206Z,100139.08
2018-12-23T13:35:40.756Z,100133.19
2018-12-23T13:38:08.360Z,100125.64
2018-12-23T13:44:00.708Z,100106.04
2018-12-23T13:46:43.505Z,100121.16
2018-12-23T13:49:18.621Z,100115.86
2018-12-23T13:51:52.076Z,100121.60
2018-12-23T13:54:33.445Z,100114.29
2018-12-23T13:57:02.805Z,100120.56
2018-12-23T13:59:46.141Z,100140.92
2018-12-23T14:02:15.588Z,100148.27
2018-12-23T14:04:46.582Z,100142.23
2018-12-23T14:07:22.093Z,100150.48
2018-12-23T14:09:55.611Z,100146.59
2018-12-23T14:12:23.509Z,100154.28
2018-12-23T14:14:51.064Z,100144.77
2018-12-23T14:17:18.638Z,100150.06
2018-12-23T14:19:46.295Z,100151.83
2018-12-23T14:22:13.867Z,100168.97
2018-12-23T14:24:41.461Z,100171.73
2018-12-23T14:27:09.199Z,100167.00
2018-12-23T14:29:36.759Z,100175.54
2018-12-23T14:32:04.369Z,100172.57
2018-12-23T14:34:32.230Z,100169.39
2018-12-23T14:36:59.795Z,100173.05
2018-12-23T14:39:28.698Z,100173.16
2018-12-23T14:41:55.166Z,100181.53
2018-12-23T14:44:22.735Z,100179.57
2018-12-23T14:46:50.319Z,100187.36
2018-12-23T14:49:18.012Z,100187.92
2018-12-23T14:51:45.532Z,100183.99
2018-12-23T14:54:13.093Z,100183.19
2018-12-23T14:56:40.746Z,100181.14
2018-12-23T14:59:08.339Z,100196.06
2018-12-23T15:01:35.877Z,100182.59
2018-12-23T15:04:04.696Z,100188.19
2018-12-23T15:06:32.273Z,100192.03
2018-12-23T15:08:59.836Z,100206.44
2018-12-23T15:11:27.569Z,100213.47
2018-12-23T15:13:55.163Z,100210.37
2018-12-23T15:16:22.754Z,100204.41
2018-12-23T15:18:50.349Z,100208.88
2018-12-23T15:21:17.938Z,100201.67
2018-12-23T15:23:45.492Z,100197.50
2018-12-23T15:26:13.188Z,100202.87
2018-12-23T15:28:40.781Z,100202.65
2018-12-23T15:31:08.367Z,100195.70
2018-12-23T15:33:36.165Z,100204.09
2018-12-23T15:36:03.720Z,100205.98
2018-12-23T15:38:31.309Z,100209.04
2018-12-23T15:40:59.102Z,100206.28
2018-12-23T15:43:26.669Z,100208.89
2018-12-23T15:45:54.281Z,100212.11
2018-12-23T15:48:21.873Z,100213.92
2018-12-23T15:50:49.444Z,100211.91
2018-12-23T15:53:17.023Z,100221.19
2018-12-23T15:55:44.757Z,100223.25
2018-12-23T15:58:12.313Z,100224.88
2018-12-23T16:00:39.872Z,100223.56
2018-12-23T16:03:08.463Z,100223.70
2018-12-23T16:05:36.043Z,100222.88
2018-12-23T16:08:03.615Z,100220.73
2018-12-23T16:10:31.560Z,100234.38
2018-12-23T16:12:59.127Z,100236.77
2018-12-23T16:15:26.766Z,100240.06
2018-12-23T16:17:55.406Z,100247.45
2018-12-23T16:20:22.986Z,100248.23
2018-12-23T16:22:51.566Z,100258.74
2018-12-23T16:25:19.538Z,100254.38
2018-12-23T16:27:47.138Z,100251.00
2018-12-23T16:30:14.692Z,100260.37
2018-12-23T16:32:42.521Z,100256.61
2018-12-23T16:35:10.077Z,100247.45
2018-12-23T16:37:37.656Z,100250.16
2018-12-23T16:40:05.403Z,100257.90
2018-12-23T16:42:40.674Z,100266.98
2018-12-23T16:45:08.492Z,100264.52
2018-12-23T16:47:36.065Z,100270.22
2018-12-23T16:50:03.637Z,100262.06
2018-12-23T16:52:31.630Z,100262.35
2018-12-23T16:54:59.185Z,100261.70
2018-12-23T16:57:26.785Z,100270.16
2018-12-23T16:59:54.509Z,100274.91
2018-12-23T17:02:22.068Z,100283.53
2018-12-23T17:04:49.639Z,100267.83
2018-12-23T17:07:17.361Z,100270.53
2018-12-23T17:09:44.920Z,100269.78
2018-12-23T17:12:12.481Z,100270.45
2018-12-23T17:14:40.074Z,100270.87
2018-12-23T17:17:07.645Z,100271.16
2018-12-23T17:19:35.195Z,100268.56
2018-12-23T17:22:02.830Z,100271.02
2018-12-23T17:24:30.393Z,100266.99
2018-12-23T17:26:57.982Z,100265.98
2018-12-23T17:29:25.591Z,100264.17
2018-12-23T17:31:53.125Z,100266.88
2018-12-23T17:34:20.694Z,100264.29
2018-12-23T17:36:48.321Z,100267.17
2018-12-23T17:39:15.874Z,100273.45
2018-12-23T17:41:43.485Z,100279.97
2018-12-23T17:44:11.082Z,100263.95
2018-12-23T17:46:38.762Z,100269.67
2018-12-23T17:49:06.304Z,100270.83
2018-12-23T17:51:33.984Z,100274.62
2018-12-23T17:54:01.595Z,100286.14
2018-12-23T17:56:30.009Z,100281.95
2018-12-23T17:58:58.010Z,100277.17
2018-12-23T18:01:48.307Z,100278.72
2018-12-23T18:04:16.238Z,100274.41
2018-12-23T18:06:43.859Z,100280.70
2018-12-23T18:09:11.418Z,100276.27
2018-12-23T18:11:39.176Z,100273.91
2018-12-23T18:14:06.758Z,100274.18
2018-12-23T18:16:34.987Z,100280.58
2018-12-23T18:19:02.938Z,100281.09
2018-12-23T18:21:30.495Z,100280.30
2018-12-23T18:23:58.093Z,100282.80
2018-12-23T18:26:25.816Z,100283.46
2018-12-23T18:28:53.388Z,100276.27
2018-12-23T18:31:20.958Z,100274.45
2018-12-23T18:33:48.564Z,100275.58
2018-12-23T18:36:16.147Z,100272.08
2018-12-23T18:38:43.722Z,100273.51
2018-12-23T18:41:11.431Z,100277.30
2018-12-23T18:43:39.075Z,100268.96
2018-12-23T18:46:06.659Z,100275.20
2018-12-23T18:48:34.328Z,100272.75
2018-12-23T18:51:01.925Z,100272.88
2018-12-23T18:53:29.483Z,100268.33
2018-12-23T18:55:57.261Z,100271.84
2018-12-23T18:58:24.834Z,100278.36
2018-12-23T19:00:52.437Z,100272.98
2018-12-23T19:03:20.336Z,100279.89
2018-12-23T19:05:47.910Z,100275.07
2018-12-23T19:08:15.499Z,100272.06
2018-12-23T19:10:43.547Z,100274.52
2018-12-23T19:13:12.597Z,100268.39
2018-12-23T19:15:45.855Z,100268.28
2018-12-23T19:18:29.038Z,100277.69
2018-12-23T19:21:17.593Z,100275.60
2018-12-23T19:24:05.657Z,100269.39
2018-12-23T19:30:07.066Z,100265.60
2018-12-23T19:32:46.231Z,100263.78
2018-12-23T19:35:34.390Z,100260.78
2018-12-23T19:38:09.982Z,100268.86
2018-12-23T19:40:50.215Z,100278.63
2018-12-23T19:43:10.970Z,100268.98
2018-12-23T19:48:57.800Z,100261.77
2018-12-23T19:51:34.931Z,100266.33
2018-12-23T19:54:28.406Z,100270.07
2018-12-23T19:57:03.514Z,100263.78
2018-12-23T19:59:41.979Z,100268.23
2018-12-23T20:02:18.188Z,100272.30
2018-12-23T20:04:49.230Z,100266.77
2018-12-23T20:07:18.794Z,100263.41
2018-12-23T20:09:48.817Z,100264.56
2018-12-23T20:12:19.350Z,100273.19
2018-12-23T20:15:03.778Z,100265.25
2018-12-23T20:17:38.280Z,100269.80
2018-12-23T20:20:15.458Z,100272.72
2018-12-23T20:22:51.725Z,100269.62
2018-12-23T20:28:24.031Z,100271.39
2018-12-23T20:30:55.206Z,100271.70
2018-12-23T20:33:40.327Z,100275.23
2018-12-23T20:36:29.318Z,100277.06
2018-12-23T20:39:08.653Z,100280.30
2018-12-23T20:41:40.021Z,100278.70
2018-12-23T20:44:08.870Z,100261.94
2018-12-23T20:46:40.290Z,100268.88
2018-12-23T20:52:27.308Z,100274.93
2018-12-23T20:58:03.992Z,100266.12
2018-12-23T21:00:53.248Z,100269.63
2018-12-23T21:06:42.655Z,100244.11
2018-12-23T21:09:18.822Z,100235.90
2018-12-23T21:11:53.332Z,100225.19
2018-12-23T21:17:38.581Z,100225.72
2018-12-23T21:23:40.030Z,100232.58
2018-12-23T21:26:11.117Z,100238.92
2018-12-23T21:31:42.446Z,100239.51
2018-12-23T21:37:50.688Z,100248.03
2018-12-23T21:40:23.583Z,100244.97
2018-12-23T21:42:57.677Z,100245.45
2018-12-23T21:45:28.160Z,100235.84
2018-12-23T21:48:13.155Z,100228.56
2018-12-23T21:50:47.305Z,100239.54
2018-12-23T21:53:18.648Z,100241.60
2018-12-23T21:56:02.035Z,100236.34
2018-12-23T22:01:28.820Z,100234.23
2018-12-23T22:04:11.293Z,100233.05
2018-12-23T22:10:04.969Z,100229.12
2018-12-23T22:15:31.619Z,100221.37
2018-12-23T22:17:59.324Z,100220.83
2018-12-23T22:20:26.893Z,100219.19
2018-12-23T22:22:54.442Z,100222.55
2018-12-23T22:25:22.379Z,100218.02
2018-12-23T22:27:49.927Z,100212.31
2018-12-23T22:30:17.494Z,100211.91
2018-12-23T22:32:45.307Z,100207.28
2018-12-23T22:35:12.857Z,100200.55
2018-12-23T22:37:40.401Z,100196.23
2018-12-23T22:40:08.106Z,100205.42
2018-12-23T22:42:38.774Z,100201.80
2018-12-23T22:45:06.362Z,100204.19
2018-12-23T22:47:34.191Z,100194.98
2018-12-23T22:50:01.750Z,100189.79
2018-12-23T22:52:29.378Z,100188.83
2018-12-23T22:54:57.057Z,100185.33
2018-12-23T22:57:24.604Z,100184.28
2018-12-23T22:59:52.946Z,100174.17
2018-12-23T23:02:20.874Z,100171.80
2018-12-23T23:04:48.441Z,100169.01
2018-12-23T23:07:15.995Z,100175.67
2018-12-23T23:09:43.665Z,100179.58
2018-12-23T23:12:11.198Z,100173.64
2018-12-23T23:14:38.778Z,100169.36
2018-12-23T23:17:06.731Z,100177.39
2018-12-23T23:19:34.295Z,100180.08
2018-12-23T23:22:01.866Z,100181.77
2018-12-23T23:24:29.765Z,100190.20
2018-12-23T23:26:57.338Z,100188.28
2018-12-23T23:29:24.970Z,100190.43
2018-12-23T23:31:52.920Z,100189.21
2018-12-23T23:34:20.506Z,100179.19
2018-12-23T23:36:48.044Z,100181.70
2018-12-23T23:39:16.008Z,100177.62
2018-12-23T23:41:43.617Z,100181.52
2018-12-23T23:44:11.165Z,100183.03
2018-12-23T23:46:38.892Z,100187.88
2018-12-23T23:49:06.444Z,100183.60
2018-12-23T23:51:34.019Z,100180.43
2018-12-23T23:54:01.735Z,100190.69
2018-12-23T23:56:29.295Z,100182.17
2018-12-23T23:58:56.838Z,100184.48
